Time;durP1;ratioP1;P1;durP2;ratioP2;P2;SDS_P1;SDS_P2;PMS_P1;PMS_P2;Temp;Humidity;BMP_temperature;BMP_pressure;BME280_temperature;BME280_humidity;BME280_pressure;Samples;Min_cycle;Max_cycle;Signal;HPM_P1;HPM_P2
2023/09/25 00:01:57;;;;;;;1.45;0.37;;;12.90;99.90;;;;;;4436670;32;20464;-61
2023/09/25 00:04:25;;;;;;;2.37;0.95;;;12.90;99.90;;;;;;4433863;32;20097;-61
2023/09/25 00:06:51;;;;;;;0.75;0.68;;;12.90;99.90;;;;;;4435609;32;20100;-62
2023/09/25 00:09:16;;;;;;;0.30;0.30;;;12.90;99.90;;;;;;4437322;32;20064;-61
2023/09/25 00:11:42;;;;;;;1.25;1.05;;;12.90;99.90;;;;;;4437019;32;20065;-60
2023/09/25 00:14:08;;;;;;;0.47;0.47;;;12.80;99.90;;;;;;4436861;32;20056;-61
2023/09/25 00:16:34;;;;;;;0.45;0.45;;;12.70;99.90;;;;;;4437050;32;20085;-61
2023/09/25 00:18:59;;;;;;;0.40;0.40;;;12.70;99.90;;;;;;4433844;32;20081;-61
2023/09/25 00:21:25;;;;;;;0.82;0.80;;;12.70;99.90;;;;;;4436783;32;20058;-61
2023/09/25 00:23:50;;;;;;;1.85;0.70;;;12.80;99.90;;;;;;4435376;32;20081;-59
2023/09/25 00:26:16;;;;;;;0.50;0.50;;;12.80;99.90;;;;;;4438036;32;20132;-61
2023/09/25 00:28:42;;;;;;;0.30;0.30;;;12.70;99.90;;;;;;4438458;32;20532;-59
2023/09/25 00:31:09;;;;;;;0.65;0.65;;;12.70;99.90;;;;;;4436911;32;20066;-60
2023/09/25 00:33:34;;;;;;;0.40;0.40;;;12.70;99.90;;;;;;4436591;32;20073;-61
2023/09/25 00:36:00;;;;;;;2.25;1.12;;;12.60;99.90;;;;;;4435122;32;20069;-61
2023/09/25 00:38:25;;;;;;;0.40;0.40;;;12.40;99.90;;;;;;4437128;32;20105;-61
2023/09/25 00:40:51;;;;;;;0.45;0.43;;;12.40;99.90;;;;;;4437831;32;20576;-58
2023/09/25 00:43:16;;;;;;;0.40;0.40;;;12.30;99.90;;;;;;4439881;32;20089;-59
2023/09/25 00:45:45;;;;;;;0.50;0.50;;;12.20;99.90;;;;;;4439143;32;20077;-59
2023/09/25 00:48:28;;;;;;;0.40;0.40;;;12.10;99.90;;;;;;4438979;32;20085;-58
2023/09/25 00:50:57;;;;;;;2.33;0.85;;;12.10;99.90;;;;;;4435477;32;20707;-58
2023/09/25 00:53:26;;;;;;;0.70;0.65;;;12.00;99.90;;;;;;4441189;32;20057;-58
2023/09/25 00:55:51;;;;;;;0.28;0.28;;;12.10;99.90;;;;;;4439197;32;20528;-58
2023/09/25 00:58:17;;;;;;;0.55;0.50;;;12.00;99.90;;;;;;4437689;32;20093;-58
2023/09/25 01:00:44;;;;;;;4.78;1.40;;;12.10;99.90;;;;;;4437023;32;20166;-57
2023/09/25 01:03:09;;;;;;;0.73;0.50;;;12.10;99.90;;;;;;4438570;32;20765;-58
2023/09/25 01:05:37;;;;;;;0.30;0.30;;;12.10;99.90;;;;;;4438326;32;20085;-58
2023/09/25 01:08:03;;;;;;;0.40;0.40;;;12.10;99.90;;;;;;4437859;32;20074;-60
2023/09/25 01:10:28;;;;;;;0.43;0.43;;;12.20;99.90;;;;;;4436668;32;20065;-58
2023/09/25 01:12:54;;;;;;;0.57;0.55;;;12.10;99.90;;;;;;4437947;32;20065;-58
2023/09/25 01:15:20;;;;;;;1.20;0.30;;;12.00;99.90;;;;;;4438693;32;20418;-58
2023/09/25 01:17:46;;;;;;;1.73;0.68;;;12.00;99.90;;;;;;4439040;32;20116;-59
2023/09/25 01:20:17;;;;;;;0.55;0.55;;;12.00;99.90;;;;;;4438560;32;20105;-55
2023/09/25 01:22:45;;;;;;;0.35;0.35;;;12.00;99.90;;;;;;4436894;32;20057;-59
2023/09/25 01:25:11;;;;;;;3.03;0.93;;;12.00;99.90;;;;;;4421801;32;20133;-59
2023/09/25 01:27:38;;;;;;;1.67;0.75;;;12.00;99.90;;;;;;4434979;32;20085;-60
2023/09/25 01:30:04;;;;;;;0.35;0.35;;;12.00;99.90;;;;;;4421734;32;20135;-59
2023/09/25 01:32:30;;;;;;;2.12;0.70;;;12.00;99.90;;;;;;4433993;32;20536;-59
2023/09/25 01:34:55;;;;;;;0.30;0.30;;;12.00;99.90;;;;;;4433336;32;20081;-58
2023/09/25 01:37:21;;;;;;;0.37;0.37;;;12.10;99.90;;;;;;4438109;32;20060;-57
2023/09/25 01:39:46;;;;;;;1.48;0.70;;;12.00;99.90;;;;;;4433040;32;20117;-59
2023/09/25 01:42:12;;;;;;;0.45;0.45;;;12.00;99.90;;;;;;4438331;32;20092;-59
2023/09/25 01:44:38;;;;;;;0.50;0.50;;;11.90;99.90;;;;;;4439530;32;20583;-59
2023/09/25 01:47:04;;;;;;;0.45;0.45;;;11.90;99.90;;;;;;4435961;32;20136;-57
2023/09/25 01:49:30;;;;;;;0.20;0.20;;;11.90;99.90;;;;;;4429835;32;20908;-59
2023/09/25 01:51:56;;;;;;;0.80;0.37;;;11.90;99.90;;;;;;4431592;32;20110;-60
2023/09/25 01:54:22;;;;;;;0.45;0.45;;;11.90;99.90;;;;;;4436031;32;20060;-60
2023/09/25 01:56:48;;;;;;;0.25;0.25;;;11.90;99.90;;;;;;4434255;32;20068;-60
2023/09/25 01:59:13;;;;;;;0.45;0.45;;;11.90;99.90;;;;;;4436532;32;20086;-61
2023/09/25 02:01:39;;;;;;;0.95;0.60;;;11.90;99.90;;;;;;4435756;32;20157;-61
2023/09/25 02:04:07;;;;;;;0.30;0.30;;;11.80;99.90;;;;;;4437820;32;20084;-61
2023/09/25 02:06:32;;;;;;;0.37;0.37;;;11.80;99.90;;;;;;4438536;32;20100;-61
2023/09/25 02:08:58;;;;;;;0.73;0.70;;;11.90;99.90;;;;;;4439371;32;20487;-62
2023/09/25 02:11:23;;;;;;;0.57;0.57;;;11.90;99.90;;;;;;4438260;32;20498;-59
2023/09/25 02:13:49;;;;;;;0.52;0.52;;;11.90;99.90;;;;;;4436894;32;20091;-60
2023/09/25 02:16:15;;;;;;;2.12;1.05;;;11.80;99.90;;;;;;4437761;32;20061;-60
2023/09/25 02:18:40;;;;;;;0.30;0.30;;;11.80;99.90;;;;;;4440232;32;20495;-61
2023/09/25 02:21:06;;;;;;;0.37;0.37;;;11.90;99.90;;;;;;4438296;32;20061;-59
2023/09/25 02:23:31;;;;;;;0.30;0.30;;;11.80;99.90;;;;;;4438769;32;20132;-60
2023/09/25 02:25:57;;;;;;;0.25;0.25;;;11.80;99.90;;;;;;4436935;32;20709;-61
2023/09/25 02:28:22;;;;;;;1.83;0.55;;;11.90;99.90;;;;;;4433962;32;20231;-61
2023/09/25 02:30:49;;;;;;;0.40;0.40;;;11.80;99.90;;;;;;4431703;32;20089;-61
2023/09/25 02:33:15;;;;;;;0.55;0.55;;;11.70;99.90;;;;;;4436646;32;20109;-61
2023/09/25 02:35:40;;;;;;;0.30;0.30;;;11.70;99.90;;;;;;4437000;32;20141;-60
2023/09/25 02:38:06;;;;;;;0.82;0.37;;;11.70;99.90;;;;;;4436611;32;20119;-61
2023/09/25 02:40:32;;;;;;;0.98;0.47;;;11.60;99.90;;;;;;4436735;32;20819;-58
2023/09/25 02:42:57;;;;;;;0.50;0.50;;;11.70;99.90;;;;;;4434658;32;20147;-61
2023/09/25 02:45:23;;;;;;;1.50;0.70;;;11.70;99.90;;;;;;4438399;32;20072;-60
2023/09/25 02:47:48;;;;;;;0.35;0.35;;;11.70;99.90;;;;;;4436587;32;20069;-61
2023/09/25 02:50:15;;;;;;;2.92;0.55;;;11.80;99.90;;;;;;4438662;32;20468;-61
2023/09/25 02:52:43;;;;;;;0.45;0.45;;;11.80;99.90;;;;;;4433777;32;20511;-60
2023/09/25 02:55:09;;;;;;;0.90;0.50;;;11.80;99.90;;;;;;4437230;32;20069;-61
2023/09/25 02:57:35;;;;;;;0.40;0.40;;;11.90;99.90;;;;;;4434424;32;20110;-60
2023/09/25 03:00:00;;;;;;;0.30;0.30;;;11.80;99.90;;;;;;4438064;32;20132;-61
2023/09/25 03:02:26;;;;;;;0.20;0.20;;;11.80;99.90;;;;;;4435842;32;20089;-61
2023/09/25 03:04:51;;;;;;;0.50;0.50;;;11.80;99.90;;;;;;4436593;32;20069;-60
2023/09/25 03:07:17;;;;;;;1.37;0.60;;;11.70;99.90;;;;;;4438116;32;20417;-61
2023/09/25 03:09:43;;;;;;;1.08;0.95;;;11.70;99.90;;;;;;4438547;32;20128;-61
2023/09/25 03:12:08;;;;;;;2.45;0.40;;;11.70;99.90;;;;;;4439196;32;20426;-58
2023/09/25 03:14:34;;;;;;;0.50;0.50;;;11.70;99.90;;;;;;4437002;32;20057;-61
2023/09/25 03:16:59;;;;;;;0.37;0.37;;;11.60;99.90;;;;;;4436533;32;20057;-57
2023/09/25 03:19:25;;;;;;;0.43;0.43;;;11.70;99.90;;;;;;4439360;32;20065;-58
2023/09/25 03:21:50;;;;;;;0.40;0.40;;;11.70;99.90;;;;;;4437811;32;20235;-61
2023/09/25 03:24:16;;;;;;;0.80;0.80;;;11.70;99.90;;;;;;4434738;32;20410;-60
2023/09/25 03:26:41;;;;;;;0.50;0.50;;;11.60;99.90;;;;;;4437439;32;20102;-60
2023/09/25 03:29:07;;;;;;;0.57;0.57;;;11.60;99.90;;;;;;4435201;32;20066;-59
2023/09/25 03:31:33;;;;;;;0.35;0.35;;;11.70;99.90;;;;;;4436423;32;20076;-58
2023/09/25 03:33:59;;;;;;;0.52;0.52;;;11.70;99.90;;;;;;4437833;32;20115;-58
2023/09/25 03:36:25;;;;;;;4.03;0.80;;;11.60;99.90;;;;;;4436804;32;20422;-58
2023/09/25 03:38:50;;;;;;;0.98;0.68;;;11.60;99.90;;;;;;4436807;32;20074;-58
2023/09/25 03:41:15;;;;;;;3.50;1.27;;;11.60;99.90;;;;;;4438946;32;20076;-58
2023/09/25 03:43:41;;;;;;;0.37;0.37;;;11.50;99.90;;;;;;4437581;32;20123;-58
2023/09/25 03:46:07;;;;;;;0.43;0.43;;;11.60;99.90;;;;;;4438043;32;20141;-58
2023/09/25 03:48:32;;;;;;;8.85;0.75;;;11.50;99.90;;;;;;4436425;32;20517;-58
2023/09/25 03:50:58;;;;;;;0.40;0.40;;;11.60;99.90;;;;;;4436330;32;20092;-60
2023/09/25 03:53:23;;;;;;;0.50;0.50;;;11.60;99.90;;;;;;4437086;32;20123;-58
2023/09/25 03:55:49;;;;;;;4.07;1.37;;;11.60;99.90;;;;;;4439038;32;20077;-57
2023/09/25 03:58:14;;;;;;;0.88;0.50;;;11.60;99.90;;;;;;4437416;32;21893;-58
2023/09/25 04:00:40;;;;;;;0.40;0.40;;;11.60;99.90;;;;;;4438260;32;20123;-58
2023/09/25 04:03:05;;;;;;;0.43;0.40;;;11.60;99.90;;;;;;4437598;32;20053;-57
2023/09/25 04:05:33;;;;;;;0.50;0.50;;;11.60;99.90;;;;;;4435708;32;20132;-58
2023/09/25 04:07:59;;;;;;;1.95;1.15;;;11.70;99.90;;;;;;4437494;32;20102;-59
2023/09/25 04:10:24;;;;;;;0.30;0.30;;;11.60;99.90;;;;;;4440148;32;20551;-59
2023/09/25 04:12:49;;;;;;;0.70;0.40;;;11.60;99.90;;;;;;4437214;32;20459;-59
2023/09/25 04:15:16;;;;;;;0.45;0.45;;;11.50;99.90;;;;;;4437495;32;20069;-59
2023/09/25 04:17:43;;;;;;;0.30;0.30;;;11.50;99.90;;;;;;4439078;32;20120;-58
2023/09/25 04:20:15;;;;;;;0.30;0.30;;;11.50;99.90;;;;;;4424616;32;20076;-59
2023/09/25 04:22:41;;;;;;;0.50;0.50;;;11.50;99.90;;;;;;4430174;32;20468;-58
2023/09/25 04:25:10;;;;;;;3.60;0.95;;;11.40;99.90;;;;;;4435511;32;20097;-59
2023/09/25 04:27:36;;;;;;;0.30;0.30;;;11.30;99.90;;;;;;4438097;32;20065;-58
2023/09/25 04:30:03;;;;;;;0.35;0.35;;;11.30;99.90;;;;;;4438131;32;20130;-59
2023/09/25 04:32:28;;;;;;;1.15;0.65;;;11.30;99.90;;;;;;4438369;32;20121;-58
2023/09/25 04:34:54;;;;;;;0.60;0.52;;;11.30;99.90;;;;;;4436185;32;20635;-58
2023/09/25 04:37:20;;;;;;;0.60;0.60;;;11.20;99.90;;;;;;4438059;32;20487;-58
2023/09/25 04:39:45;;;;;;;1.25;0.93;;;11.20;99.90;;;;;;4436503;32;20065;-58
2023/09/25 04:42:11;;;;;;;1.42;0.62;;;11.20;99.90;;;;;;4437828;32;20084;-57
2023/09/25 04:44:37;;;;;;;0.60;0.57;;;11.20;99.90;;;;;;4437082;32;20556;-58
2023/09/25 04:47:04;;;;;;;0.65;0.65;;;11.20;99.90;;;;;;4435943;32;20119;-57
2023/09/25 04:49:30;;;;;;;0.60;0.60;;;11.20;99.90;;;;;;4437628;32;20068;-59
2023/09/25 04:51:56;;;;;;;2.42;0.60;;;11.10;99.90;;;;;;4435320;32;20734;-58
2023/09/25 04:54:21;;;;;;;0.90;0.47;;;11.10;99.90;;;;;;4437128;32;20074;-57
2023/09/25 04:56:47;;;;;;;0.55;0.55;;;11.20;99.90;;;;;;4437293;32;20434;-57
2023/09/25 04:59:12;;;;;;;4.25;0.55;;;11.20;99.90;;;;;;4435315;32;20132;-57
2023/09/25 05:01:38;;;;;;;0.37;0.37;;;11.30;99.90;;;;;;4429356;32;20101;-58
2023/09/25 05:04:04;;;;;;;1.30;0.70;;;11.20;99.90;;;;;;4433703;32;20082;-60
2023/09/25 05:06:29;;;;;;;0.65;0.65;;;11.30;99.90;;;;;;4436512;32;20116;-59
2023/09/25 05:08:55;;;;;;;0.40;0.40;;;11.30;99.90;;;;;;4435336;32;20070;-58
2023/09/25 05:11:21;;;;;;;0.30;0.30;;;11.30;99.90;;;;;;4432249;32;20458;-58
2023/09/25 05:13:46;;;;;;;0.60;0.60;;;11.20;99.90;;;;;;4437515;32;20057;-58
2023/09/25 05:16:12;;;;;;;1.40;0.75;;;11.30;99.90;;;;;;4435246;32;20054;-57
2023/09/25 05:18:38;;;;;;;0.40;0.40;;;11.30;99.90;;;;;;4416204;32;20084;-59
2023/09/25 05:21:04;;;;;;;0.55;0.55;;;11.30;99.90;;;;;;4423676;32;20101;-60
2023/09/25 05:23:31;;;;;;;0.50;0.50;;;11.40;99.90;;;;;;4424255;32;20086;-60
2023/09/25 05:25:58;;;;;;;0.43;0.43;;;11.30;99.90;;;;;;4422718;32;20658;-55
2023/09/25 05:28:26;;;;;;;0.50;0.50;;;11.20;99.90;;;;;;4418828;32;21197;-59
2023/09/25 05:30:54;;;;;;;3.40;1.52;;;11.10;99.90;;;;;;4415124;32;20076;-57
2023/09/25 05:33:20;;;;;;;1.33;1.05;;;11.10;99.90;;;;;;4417777;32;20105;-61
2023/09/25 05:35:47;;;;;;;0.43;0.40;;;11.10;99.90;;;;;;4427212;32;20082;-60
2023/09/25 05:38:15;;;;;;;1.62;0.98;;;11.10;99.90;;;;;;4425826;32;20085;-58
2023/09/25 05:40:42;;;;;;;0.43;0.43;;;11.20;99.90;;;;;;4422250;32;20160;-62
2023/09/25 05:43:09;;;;;;;0.85;0.68;;;11.20;99.90;;;;;;4427935;32;20117;-60
2023/09/25 05:45:34;;;;;;;0.80;0.45;;;11.20;99.90;;;;;;4427501;32;20450;-60
2023/09/25 05:48:01;;;;;;;0.93;0.70;;;11.30;99.90;;;;;;4431670;32;20076;-61
2023/09/25 05:50:32;;;;;;;0.40;0.40;;;11.20;99.90;;;;;;4420371;32;20151;-57
2023/09/25 05:52:58;;;;;;;4.68;0.50;;;11.30;99.90;;;;;;4425560;32;20093;-60
2023/09/25 05:55:24;;;;;;;1.67;0.77;;;11.30;99.90;;;;;;4424850;32;20128;-61
2023/09/25 05:57:49;;;;;;;3.92;0.50;;;11.30;99.90;;;;;;4422798;32;20084;-61
2023/09/25 06:00:18;;;;;;;0.40;0.40;;;11.30;99.90;;;;;;4424092;32;20080;-60
2023/09/25 06:02:44;;;;;;;1.98;1.75;;;11.40;99.90;;;;;;4409627;32;20101;-59
2023/09/25 06:05:15;;;;;;;1.27;0.77;;;11.50;99.90;;;;;;4414599;32;20576;-60
2023/09/25 06:07:42;;;;;;;0.47;0.47;;;11.50;99.90;;;;;;4415335;32;20138;-61
2023/09/25 06:10:08;;;;;;;0.40;0.40;;;11.60;99.90;;;;;;4418177;32;20606;-59
2023/09/25 06:12:33;;;;;;;0.47;0.47;;;11.70;99.90;;;;;;4418318;32;20142;-63
2023/09/25 06:14:59;;;;;;;8.98;1.02;;;11.80;99.90;;;;;;4415463;32;20704;-60
2023/09/25 06:17:26;;;;;;;0.35;0.35;;;11.80;99.90;;;;;;4414734;32;20098;-60
2023/09/25 06:19:53;;;;;;;1.75;0.50;;;11.80;99.90;;;;;;4418638;32;20081;-60
2023/09/25 06:22:21;;;;;;;0.40;0.40;;;11.90;99.90;;;;;;4420214;32;20085;-61
2023/09/25 06:24:47;;;;;;;4.55;0.85;;;11.90;99.90;;;;;;4422057;32;20169;-59
2023/09/25 06:27:13;;;;;;;0.95;0.65;;;12.00;99.90;;;;;;4423404;32;20097;-60
2023/09/25 06:29:38;;;;;;;0.30;0.30;;;12.00;99.90;;;;;;4421404;32;20989;-58
2023/09/25 06:32:04;;;;;;;0.75;0.68;;;12.00;99.90;;;;;;4424741;32;20081;-59
2023/09/25 06:34:30;;;;;;;0.45;0.43;;;12.10;99.90;;;;;;4425720;32;20074;-59
2023/09/25 06:36:55;;;;;;;0.50;0.50;;;12.20;99.90;;;;;;4419668;32;20097;-58
2023/09/25 06:39:21;;;;;;;2.83;1.05;;;12.30;99.90;;;;;;4423710;32;20076;-61
2023/09/25 06:41:46;;;;;;;0.80;0.80;;;12.40;99.90;;;;;;4422369;32;20088;-59
2023/09/25 06:44:12;;;;;;;0.32;0.32;;;12.40;99.90;;;;;;4413086;32;20183;-59
2023/09/25 06:46:37;;;;;;;0.85;0.52;;;12.40;99.90;;;;;;4409500;32;20111;-59
2023/09/25 06:49:03;;;;;;;1.65;0.62;;;12.50;99.90;;;;;;4417630;32;20065;-61
2023/09/25 06:51:29;;;;;;;0.47;0.47;;;12.60;99.90;;;;;;4409822;32;20084;-58
2023/09/25 06:53:55;;;;;;;0.85;0.40;;;12.70;99.90;;;;;;4397362;32;20097;-61
2023/09/25 06:56:20;;;;;;;1.10;0.60;;;12.70;99.90;;;;;;4411629;32;20858;-60
2023/09/25 06:58:46;;;;;;;0.50;0.50;;;12.90;99.90;;;;;;4410862;32;20127;-59
2023/09/25 07:01:12;;;;;;;1.37;0.73;;;13.00;99.90;;;;;;4414339;32;20096;-61
2023/09/25 07:03:37;;;;;;;0.55;0.55;;;13.00;99.90;;;;;;4411812;32;20072;-61
2023/09/25 07:06:03;;;;;;;0.60;0.60;;;13.10;99.90;;;;;;4410544;32;20870;-61
2023/09/25 07:08:30;;;;;;;0.62;0.62;;;13.20;99.90;;;;;;4415108;32;20073;-61
2023/09/25 07:10:58;;;;;;;0.60;0.50;;;13.30;99.90;;;;;;4408293;32;20084;-60
2023/09/25 07:13:24;;;;;;;0.98;0.60;;;13.50;99.90;;;;;;4415612;32;20069;-60
2023/09/25 07:15:49;;;;;;;0.52;0.47;;;13.60;99.90;;;;;;4412217;32;20835;-57
2023/09/25 07:18:16;;;;;;;0.40;0.40;;;13.70;99.90;;;;;;4411083;32;20513;-60
2023/09/25 07:20:45;;;;;;;0.40;0.40;;;13.80;99.90;;;;;;4404450;32;20077;-60
2023/09/25 07:23:11;;;;;;;3.70;0.80;;;13.90;99.90;;;;;;4407917;32;20089;-61
2023/09/25 07:25:36;;;;;;;0.95;0.90;;;14.10;99.90;;;;;;4402099;32;20102;-62
2023/09/25 07:28:02;;;;;;;1.42;0.47;;;14.10;99.90;;;;;;4408018;32;20105;-61
2023/09/25 07:30:28;;;;;;;0.40;0.40;;;14.20;99.90;;;;;;4409445;32;20084;-62
2023/09/25 07:32:54;;;;;;;0.37;0.37;;;14.30;99.90;;;;;;4401722;32;20819;-61
2023/09/25 07:35:19;;;;;;;0.77;0.77;;;14.40;99.90;;;;;;4411119;32;20085;-62
2023/09/25 07:37:47;;;;;;;0.37;0.37;;;14.50;99.90;;;;;;4413059;32;20186;-61
2023/09/25 07:40:14;;;;;;;0.88;0.50;;;14.60;99.90;;;;;;4413577;32;20109;-60
2023/09/25 07:42:40;;;;;;;0.30;0.30;;;14.70;99.90;;;;;;4409084;32;20097;-60
2023/09/25 07:45:09;;;;;;;0.52;0.52;;;14.80;99.90;;;;;;4417426;32;20093;-62
2023/09/25 07:47:38;;;;;;;0.30;0.30;;;14.80;99.90;;;;;;4405353;32;20539;-62
2023/09/25 07:50:10;;;;;;;0.28;0.28;;;14.90;99.90;;;;;;4400619;32;21360;-60
2023/09/25 07:52:39;;;;;;;0.40;0.40;;;14.90;99.90;;;;;;4399901;32;20801;-61
2023/09/25 07:55:07;;;;;;;2.87;0.60;;;15.00;99.90;;;;;;4412532;32;20105;-62
2023/09/25 07:57:35;;;;;;;0.43;0.43;;;15.20;99.90;;;;;;4414614;32;20212;-61
2023/09/25 08:00:09;;;;;;;0.30;0.30;;;15.10;99.90;;;;;;4416745;32;20105;-62
2023/09/25 08:02:39;;;;;;;1.30;0.65;;;15.20;99.90;;;;;;4411806;32;20293;-61
2023/09/25 08:05:07;;;;;;;;;;;15.20;99.90;;;;;;4410274;32;20089;-61
2023/09/25 08:07:32;;;;;;;0.32;0.32;;;15.30;99.90;;;;;;4411667;32;19946;-62
2023/09/25 08:09:59;;;;;;;0.82;0.68;;;15.40;99.90;;;;;;4411238;32;20057;-62
2023/09/25 08:12:25;;;;;;;1.95;0.52;;;15.40;99.90;;;;;;4412791;32;20551;-60
2023/09/25 08:14:50;;;;;;;0.73;0.60;;;15.50;99.90;;;;;;4416472;32;20121;-63
2023/09/25 08:17:16;;;;;;;0.45;0.45;;;15.60;99.90;;;;;;4408540;32;20069;-60
2023/09/25 08:19:41;;;;;;;0.50;0.50;;;15.60;99.90;;;;;;4401401;32;20144;-59
2023/09/25 08:22:07;;;;;;;1.00;0.75;;;15.70;99.90;;;;;;4398482;32;20122;-63
2023/09/25 08:24:33;;;;;;;0.25;0.25;;;15.70;99.90;;;;;;4400477;32;20141;-59
2023/09/25 08:26:59;;;;;;;0.62;0.50;;;15.80;99.90;;;;;;4391405;32;20162;-61
2023/09/25 08:29:25;;;;;;;0.30;0.30;;;15.90;99.90;;;;;;4395385;32;20109;-62
2023/09/25 08:31:51;;;;;;;0.20;0.20;;;16.00;99.90;;;;;;4403455;32;20085;-63
2023/09/25 08:34:17;;;;;;;2.60;0.70;;;16.00;99.90;;;;;;4396654;32;20117;-62
2023/09/25 08:36:42;;;;;;;0.50;0.50;;;16.10;99.90;;;;;;4408108;32;20181;-62
2023/09/25 08:39:10;;;;;;;1.35;0.80;;;16.20;99.90;;;;;;4407458;32;20703;-62
2023/09/25 08:41:36;;;;;;;0.80;0.80;;;16.20;99.90;;;;;;4411969;32;21347;-62
2023/09/25 08:44:02;;;;;;;0.98;0.60;;;16.30;99.90;;;;;;4404413;32;20113;-63
2023/09/25 08:46:28;;;;;;;0.77;0.57;;;16.40;99.90;;;;;;4398802;32;20089;-62
2023/09/25 08:48:56;;;;;;;1.70;0.43;;;16.50;99.90;;;;;;4385118;32;20826;-63
2023/09/25 08:51:24;;;;;;;0.30;0.30;;;16.60;99.90;;;;;;4392237;32;21072;-62
2023/09/25 08:53:51;;;;;;;0.40;0.40;;;16.60;99.90;;;;;;4395383;32;20080;-63
2023/09/25 08:56:18;;;;;;;0.40;0.40;;;16.70;99.90;;;;;;4392295;32;20168;-63
2023/09/25 08:58:44;;;;;;;0.37;0.37;;;16.80;99.90;;;;;;4395491;32;20145;-62
2023/09/25 09:01:10;;;;;;;0.40;0.40;;;16.80;99.90;;;;;;4407887;32;20698;-63
2023/09/25 09:03:36;;;;;;;0.40;0.40;;;16.90;99.90;;;;;;4396883;32;20100;-62
2023/09/25 09:06:01;;;;;;;0.40;0.40;;;17.00;99.90;;;;;;4402254;32;20871;-61
2023/09/25 09:08:29;;;;;;;0.40;0.40;;;17.10;99.90;;;;;;4399412;32;20077;-62
2023/09/25 09:10:55;;;;;;;0.65;0.62;;;17.20;99.90;;;;;;4408024;32;20073;-63
2023/09/25 09:13:22;;;;;;;0.85;0.35;;;17.30;99.90;;;;;;4408029;32;21080;-62
2023/09/25 09:15:49;;;;;;;0.40;0.40;;;17.40;99.90;;;;;;4405147;32;20460;-63
2023/09/25 09:18:25;;;;;;;1.10;0.70;;;17.40;99.90;;;;;;4406257;32;20102;-63
2023/09/25 09:20:51;;;;;;;4.97;1.65;;;17.50;99.90;;;;;;4408324;32;20081;-62
2023/09/25 09:23:16;;;;;;;0.30;0.30;;;17.50;99.90;;;;;;4389465;32;20160;-63
2023/09/25 09:25:51;;;;;;;0.28;0.28;;;17.70;99.90;;;;;;4401577;32;20109;-61
2023/09/25 09:28:16;;;;;;;0.90;0.75;;;17.80;99.90;;;;;;4404298;32;20160;-59
2023/09/25 09:30:42;;;;;;;0.40;0.40;;;17.90;99.90;;;;;;4394503;32;21406;-59
2023/09/25 09:33:08;;;;;;;0.60;0.60;;;18.00;99.90;;;;;;4392590;32;20092;-60
2023/09/25 09:35:34;;;;;;;2.37;1.00;;;18.10;99.90;;;;;;4406979;32;21228;-61
2023/09/25 09:38:02;;;;;;;2.15;0.50;;;18.30;99.90;;;;;;4400528;32;20109;-61
2023/09/25 09:40:28;;;;;;;0.50;0.50;;;18.40;99.90;;;;;;4403910;32;20077;-59
2023/09/25 09:42:54;;;;;;;0.30;0.30;;;18.40;99.90;;;;;;4408786;32;20101;-63
2023/09/25 09:45:20;;;;;;;0.40;0.40;;;18.50;99.90;;;;;;4402015;32;20096;-59
2023/09/25 09:47:47;;;;;;;0.55;0.55;;;18.50;99.90;;;;;;4395414;32;20093;-63
2023/09/25 09:50:18;;;;;;;0.50;0.50;;;18.60;99.90;;;;;;4407272;32;20085;-62
2023/09/25 09:52:44;;;;;;;0.70;0.70;;;18.60;99.90;;;;;;4406828;32;20080;-61
2023/09/25 09:55:12;;;;;;;0.40;0.40;;;18.60;99.90;;;;;;4410341;32;20418;-60
2023/09/25 09:57:38;;;;;;;3.10;0.40;;;18.70;99.90;;;;;;4395524;32;20159;-59
2023/09/25 10:00:06;;;;;;;0.30;0.30;;;18.70;99.90;;;;;;4407507;32;20817;-61
2023/09/25 10:02:31;;;;;;;0.52;0.52;;;18.80;99.90;;;;;;4405977;32;20143;-61
2023/09/25 10:04:58;;;;;;;0.25;0.25;;;18.80;99.90;;;;;;4410885;32;20066;-60
2023/09/25 10:07:23;;;;;;;0.60;0.50;;;18.90;99.90;;;;;;4420739;32;20136;-62
2023/09/25 10:09:56;;;;;;;0.40;0.40;;;19.00;99.90;;;;;;4414643;32;20208;-62
2023/09/25 10:12:47;;;;;;;0.40;0.40;;;19.00;99.90;;;;;;4401167;32;20894;-59
2023/09/25 10:15:19;;;;;;;0.37;0.37;;;19.10;99.90;;;;;;4398333;32;20878;-60
2023/09/25 10:17:46;;;;;;;0.60;0.60;;;19.10;99.90;;;;;;4381685;32;20752;-61
2023/09/25 10:20:33;;;;;;;0.40;0.40;;;19.20;99.90;;;;;;4390923;32;20096;-62
2023/09/25 10:23:09;;;;;;;0.40;0.40;;;19.20;99.90;;;;;;4402006;32;20149;-62
2023/09/25 10:25:57;;;;;;;0.20;0.20;;;19.40;99.90;;;;;;4399409;32;21484;-61
2023/09/25 10:28:26;;;;;;;0.20;0.20;;;19.40;99.90;;;;;;4412455;32;20068;-62
2023/09/25 10:30:55;;;;;;;0.40;0.40;;;19.40;99.90;;;;;;4415049;32;20557;-60
2023/09/25 10:33:21;;;;;;;0.22;0.22;;;19.50;99.90;;;;;;4417552;32;20504;-60
2023/09/25 10:35:48;;;;;;;0.40;0.40;;;19.60;99.90;;;;;;4415861;32;20081;-60
2023/09/25 10:38:17;;;;;;;6.35;0.73;;;19.60;99.90;;;;;;4413958;32;20639;-62
2023/09/25 10:40:44;;;;;;;0.22;0.22;;;19.70;99.90;;;;;;4404280;32;20076;-61
2023/09/25 10:43:10;;;;;;;0.40;0.40;;;19.80;99.90;;;;;;4414051;32;20101;-62
2023/09/25 10:45:37;;;;;;;0.40;0.40;;;19.80;99.90;;;;;;4414260;32;20101;-62
2023/09/25 10:48:03;;;;;;;11.20;0.45;;;19.90;99.90;;;;;;4412627;32;20101;-61
2023/09/25 10:50:29;;;;;;;0.40;0.40;;;20.00;99.90;;;;;;4413735;32;20101;-60
2023/09/25 10:52:55;;;;;;;0.75;0.75;;;20.00;99.90;;;;;;4407141;32;20085;-61
2023/09/25 10:55:21;;;;;;;1.12;0.50;;;20.10;99.90;;;;;;4398886;32;20595;-61
2023/09/25 10:57:47;;;;;;;0.32;0.32;;;20.20;99.90;;;;;;4391280;32;20100;-62
2023/09/25 11:00:15;;;;;;;0.40;0.40;;;20.30;99.90;;;;;;4395205;32;20211;-61
2023/09/25 11:02:41;;;;;;;0.40;0.40;;;20.30;99.90;;;;;;4406396;32;20097;-61
2023/09/25 11:05:07;;;;;;;0.20;0.20;;;20.40;99.90;;;;;;4403689;32;20404;-63
2023/09/25 11:07:36;;;;;;;1.00;0.82;;;20.40;99.90;;;;;;4408980;32;20208;-61
2023/09/25 11:10:02;;;;;;;0.30;0.30;;;20.50;99.90;;;;;;4409989;32;20583;-62
2023/09/25 11:12:29;;;;;;;0.28;0.28;;;20.60;99.90;;;;;;4403427;32;20092;-63
2023/09/25 11:14:55;;;;;;;0.55;0.55;;;20.80;99.90;;;;;;4412075;32;20084;-62
2023/09/25 11:17:20;;;;;;;0.45;0.40;;;21.00;99.90;;;;;;4397518;32;20089;-61
2023/09/25 11:19:46;;;;;;;0.40;0.40;;;21.10;99.90;;;;;;4404636;32;20569;-63
2023/09/25 11:22:11;;;;;;;0.20;0.20;;;21.10;99.90;;;;;;4403225;32;20072;-62
2023/09/25 11:24:37;;;;;;;0.40;0.40;;;21.40;99.90;;;;;;4396734;32;20667;-60
2023/09/25 11:27:10;;;;;;;0.47;0.40;;;21.80;99.90;;;;;;4413693;32;20162;-63
2023/09/25 11:29:36;;;;;;;7.57;0.80;;;22.10;99.90;;;;;;4417153;32;20133;-62
2023/09/25 11:32:02;;;;;;;0.80;0.40;;;22.50;99.90;;;;;;4412849;32;20100;-62
2023/09/25 11:34:28;;;;;;;0.40;0.40;;;22.90;99.90;;;;;;4391501;32;20568;-62
2023/09/25 11:36:54;;;;;;;0.20;0.20;;;23.20;99.90;;;;;;4405525;32;20085;-61
2023/09/25 11:39:19;;;;;;;0.10;0.10;;;23.50;99.90;;;;;;4404584;32;20081;-60
2023/09/25 11:41:45;;;;;;;0.37;0.37;;;23.80;99.90;;;;;;4399987;32;20081;-61
2023/09/25 11:44:11;;;;;;;0.32;0.30;;;24.10;99.90;;;;;;4396311;32;20094;-62
2023/09/25 11:46:37;;;;;;;0.75;0.47;;;24.20;99.90;;;;;;4395573;32;20092;-64
2023/09/25 11:49:03;;;;;;;0.30;0.30;;;24.30;99.90;;;;;;4392853;32;95541;-61
2023/09/25 11:51:28;;;;;;;0.10;0.10;;;24.40;99.20;;;;;;4389911;32;22217;-61
2023/09/25 11:53:54;;;;;;;0.15;0.15;;;24.70;99.50;;;;;;4399633;32;20429;-62
2023/09/25 11:56:21;;;;;;;0.15;0.15;;;24.80;99.30;;;;;;4407964;32;21167;-62
2023/09/25 11:58:46;;;;;;;0.20;0.20;;;24.70;99.00;;;;;;4405664;32;20081;-62
2023/09/25 12:01:12;;;;;;;0.20;0.20;;;24.70;99.00;;;;;;4406243;32;20096;-61
2023/09/25 12:03:38;;;;;;;0.10;0.10;;;24.70;98.80;;;;;;4407003;32;20085;-61
2023/09/25 12:06:05;;;;;;;0.15;0.15;;;25.10;98.00;;;;;;4416218;32;20098;-62
2023/09/25 12:08:31;;;;;;;0.10;0.10;;;25.50;97.60;;;;;;4409641;32;20073;-62
2023/09/25 12:10:56;;;;;;;0.10;0.10;;;25.80;96.90;;;;;;4412457;32;20077;-62
2023/09/25 12:13:22;;;;;;;0.30;0.30;;;25.70;97.10;;;;;;4404683;32;20753;-61
2023/09/25 12:15:48;;;;;;;0.55;0.47;;;26.00;96.70;;;;;;4406517;32;20097;-60
2023/09/25 12:18:13;;;;;;;0.20;0.20;;;26.20;96.00;;;;;;4410184;32;20181;-61
2023/09/25 12:20:41;;;;;;;0.20;0.20;;;26.50;95.40;;;;;;4415917;32;20077;-61
2023/09/25 12:23:07;;;;;;;0.10;0.10;;;26.40;95.40;;;;;;4418363;32;20175;-61
2023/09/25 12:25:33;;;;;;;0.00;0.00;;;26.50;95.80;;;;;;4406001;32;20085;-61
2023/09/25 12:27:59;;;;;;;0.15;0.15;;;26.90;94.70;;;;;;4413291;32;20686;-60
2023/09/25 12:30:24;;;;;;;0.20;0.20;;;26.80;94.80;;;;;;4422952;32;20116;-61
2023/09/25 12:32:50;;;;;;;0.28;0.28;;;27.10;95.00;;;;;;4407342;32;20540;-61
2023/09/25 12:35:16;;;;;;;0.10;0.10;;;27.60;94.40;;;;;;4418677;32;20605;-61
2023/09/25 12:37:44;;;;;;;0.20;0.20;;;27.60;94.10;;;;;;4430168;32;20080;-61
2023/09/25 12:40:10;;;;;;;0.90;0.57;;;27.50;94.40;;;;;;4426066;32;20084;-61
2023/09/25 12:42:36;;;;;;;0.68;0.35;;;27.80;94.00;;;;;;4425848;32;20097;-61
2023/09/25 12:45:04;;;;;;;0.30;0.30;;;28.10;93.60;;;;;;4435573;32;20096;-62